createdAt,value
2022-10-30T00:01:56.999Z,10.04
2022-10-30T00:05:01.657Z,9.98
2022-10-30T00:08:08.256Z,9.96
2022-10-30T00:11:15.506Z,9.95
2022-10-30T00:14:21.597Z,9.93
2022-10-30T00:17:27.783Z,9.96
2022-10-30T00:20:33.846Z,9.98
2022-10-30T00:23:41.059Z,9.98
2022-10-30T00:26:47.115Z,9.97
2022-10-30T00:29:53.237Z,9.93
2022-10-30T00:32:58.088Z,9.88
2022-10-30T00:36:04.425Z,9.83
2022-10-30T00:39:09.011Z,9.80
2022-10-30T00:42:18.051Z,9.79
2022-10-30T00:45:24.248Z,9.78
2022-10-30T00:48:29.583Z,9.75
2022-10-30T00:51:36.283Z,9.73
2022-10-30T00:54:42.497Z,9.71
2022-10-30T00:57:47.550Z,9.70
2022-10-30T01:00:56.360Z,9.68
2022-10-30T01:04:04.979Z,9.66
2022-10-30T01:07:16.779Z,9.61
2022-10-30T01:10:23.656Z,9.54
2022-10-30T01:13:30.873Z,9.45
2022-10-30T01:17:06.407Z,9.40
2022-10-30T01:20:19.421Z,9.37
2022-10-30T01:23:38.983Z,9.35
2022-10-30T01:26:54.082Z,9.34
2022-10-30T01:30:12.432Z,9.32
2022-10-30T01:33:31.698Z,9.30
2022-10-30T01:36:44.538Z,9.28
2022-10-30T01:39:50.725Z,9.28
2022-10-30T01:42:56.130Z,9.28
2022-10-30T01:46:25.030Z,9.25
2022-10-30T01:49:52.277Z,9.23
2022-10-30T01:53:03.988Z,9.19
2022-10-30T01:56:22.017Z,9.17
2022-10-30T01:59:34.530Z,9.18
2022-10-30T02:02:40.993Z,9.20
2022-10-30T02:05:49.972Z,9.22
2022-10-30T02:08:58.193Z,9.18
2022-10-30T02:12:05.739Z,9.13
2022-10-30T02:15:13.764Z,9.05
2022-10-30T02:18:19.932Z,8.98
2022-10-30T02:21:24.440Z,8.95
2022-10-30T02:24:31.423Z,8.94
2022-10-30T02:27:37.567Z,8.93
2022-10-30T02:30:44.240Z,8.96
2022-10-30T02:33:50.481Z,8.98
2022-10-30T02:36:54.945Z,8.99
2022-10-30T02:40:01.285Z,8.98
2022-10-30T02:43:07.482Z,8.98
2022-10-30T02:46:13.622Z,8.98
2022-10-30T02:49:19.769Z,8.98
2022-10-30T02:52:25.788Z,8.97
2022-10-30T02:55:31.932Z,8.96
2022-10-30T02:58:38.474Z,8.94
2022-10-30T03:01:44.988Z,8.93
2022-10-30T03:04:51.179Z,8.92
2022-10-30T03:07:57.490Z,8.89
2022-10-30T03:11:05.363Z,8.89
2022-10-30T03:14:11.700Z,8.87
2022-10-30T03:17:17.811Z,8.83
2022-10-30T03:20:23.949Z,8.77
2022-10-30T03:23:30.241Z,8.73
2022-10-30T03:26:36.230Z,8.70
2022-10-30T03:29:42.475Z,8.67
2022-10-30T03:32:47.045Z,8.64
2022-10-30T03:35:53.582Z,8.62
2022-10-30T03:38:59.710Z,8.63
2022-10-30T03:42:05.981Z,8.64
2022-10-30T03:45:11.492Z,8.66
2022-10-30T03:48:18.506Z,8.65
2022-10-30T03:51:24.523Z,8.61
2022-10-30T03:54:31.307Z,8.58
2022-10-30T03:57:39.457Z,8.50
2022-10-30T04:00:45.629Z,8.42
2022-10-30T04:03:50.195Z,8.36
2022-10-30T04:06:56.257Z,8.31
2022-10-30T04:10:02.440Z,8.25
2022-10-30T04:13:07.562Z,8.23
2022-10-30T04:16:13.902Z,8.20
2022-10-30T04:19:18.368Z,8.18
2022-10-30T04:22:24.924Z,8.15
2022-10-30T04:25:31.822Z,8.11
2022-10-30T04:28:37.930Z,8.09
2022-10-30T04:31:44.089Z,8.06
2022-10-30T04:34:53.472Z,8.04
2022-10-30T04:38:00.864Z,8.02
2022-10-30T04:41:07.107Z,8.00
2022-10-30T04:44:11.577Z,7.95
2022-10-30T04:47:17.894Z,7.91
2022-10-30T04:50:24.050Z,7.93
2022-10-30T04:53:30.218Z,7.96
2022-10-30T04:56:36.416Z,7.99
2022-10-30T04:59:40.961Z,8.01
2022-10-30T05:02:47.103Z,8.00
2022-10-30T05:06:01.160Z,7.98
2022-10-30T05:09:07.365Z,7.95
2022-10-30T05:12:13.893Z,7.93
2022-10-30T05:15:20.259Z,7.92
2022-10-30T05:18:26.467Z,7.89
2022-10-30T05:21:32.537Z,7.84
2022-10-30T05:24:38.718Z,7.80
2022-10-30T05:27:43.186Z,7.76
2022-10-30T05:30:49.452Z,7.71
2022-10-30T05:33:54.067Z,7.68
2022-10-30T05:37:01.518Z,7.65
2022-10-30T05:40:09.239Z,7.62
2022-10-30T05:43:15.482Z,7.59
2022-10-30T05:46:21.623Z,7.57
2022-10-30T05:49:27.754Z,7.58
2022-10-30T05:52:33.878Z,7.56
2022-10-30T05:55:39.980Z,7.52
2022-10-30T05:58:46.099Z,7.54
2022-10-30T06:01:52.179Z,7.59
2022-10-30T06:04:58.295Z,7.62
2022-10-30T06:08:05.250Z,7.65
2022-10-30T06:11:11.516Z,7.70
2022-10-30T06:14:16.144Z,7.71
2022-10-30T06:17:22.308Z,7.67
2022-10-30T06:20:30.117Z,7.64
2022-10-30T06:23:36.239Z,7.66
2022-10-30T06:26:42.852Z,7.69
2022-10-30T06:29:49.222Z,7.72
2022-10-30T06:32:57.619Z,7.75
2022-10-30T06:36:03.913Z,7.80
2022-10-30T06:39:10.138Z,7.84
2022-10-30T06:42:14.591Z,7.86
2022-10-30T06:45:22.803Z,7.89
2022-10-30T06:48:28.944Z,7.94
2022-10-30T06:51:35.945Z,7.96
2022-10-30T06:54:42.315Z,8.00
2022-10-30T06:57:54.622Z,8.02
2022-10-30T07:01:02.863Z,8.05
2022-10-30T07:04:09.103Z,8.09
2022-10-30T07:07:15.293Z,8.11
2022-10-30T07:10:21.890Z,8.13
2022-10-30T07:13:28.145Z,8.16
2022-10-30T07:16:32.633Z,8.18
2022-10-30T07:19:38.954Z,8.21
2022-10-30T07:22:45.049Z,8.26
2022-10-30T07:25:51.075Z,8.32
2022-10-30T07:28:57.239Z,8.41
2022-10-30T07:32:03.764Z,8.48
2022-10-30T07:35:12.539Z,8.59
2022-10-30T07:38:18.907Z,8.74
2022-10-30T07:41:23.514Z,8.86
2022-10-30T07:44:29.640Z,9.00
2022-10-30T07:47:40.106Z,9.16
2022-10-30T07:50:46.242Z,9.32
2022-10-30T07:53:52.273Z,9.46
2022-10-30T07:56:59.086Z,9.59
2022-10-30T08:00:05.582Z,9.67
2022-10-30T08:03:12.974Z,9.75
2022-10-30T08:06:22.918Z,9.78
2022-10-30T08:09:32.446Z,9.83
2022-10-30T08:12:40.684Z,9.92
2022-10-30T08:15:46.812Z,10.06
2022-10-30T08:18:53.337Z,10.17
2022-10-30T08:22:00.261Z,10.26
2022-10-30T08:25:07.290Z,10.33
2022-10-30T08:28:14.578Z,10.42
2022-10-30T08:31:20.725Z,10.51
2022-10-30T08:34:26.773Z,10.58
2022-10-30T08:37:32.837Z,10.66
2022-10-30T08:40:39.094Z,10.76
2022-10-30T08:43:43.575Z,10.88
2022-10-30T08:46:49.674Z,10.99
2022-10-30T08:49:55.639Z,11.09
2022-10-30T08:53:05.689Z,11.19
2022-10-30T08:56:11.890Z,11.29
2022-10-30T08:59:17.271Z,11.39
2022-10-30T09:02:26.717Z,11.52
2022-10-30T09:05:33.045Z,11.62
2022-10-30T09:08:39.237Z,11.74
2022-10-30T09:11:43.740Z,11.88
2022-10-30T09:14:49.864Z,12.01
2022-10-30T09:17:58.823Z,12.16
2022-10-30T09:21:05.612Z,12.31
2022-10-30T09:24:12.043Z,12.47
2022-10-30T09:27:18.059Z,12.62
2022-10-30T09:30:24.405Z,12.82
2022-10-30T09:33:30.536Z,12.97
2022-10-30T09:36:35.525Z,13.09
2022-10-30T09:39:41.715Z,13.22
2022-10-30T09:42:47.329Z,13.35
2022-10-30T09:46:21.194Z,13.49
2022-10-30T09:49:45.135Z,13.64
2022-10-30T09:53:03.577Z,13.78
2022-10-30T09:56:19.438Z,13.89
2022-10-30T09:59:31.592Z,14.00
2022-10-30T10:02:39.863Z,14.10
2022-10-30T10:05:49.924Z,14.20
2022-10-30T10:08:59.774Z,14.29
2022-10-30T10:12:09.334Z,14.40
2022-10-30T10:15:30.945Z,14.50
2022-10-30T10:18:44.585Z,14.64
2022-10-30T10:21:56.711Z,14.77
2022-10-30T10:25:04.090Z,14.89
2022-10-30T10:28:23.643Z,15.02
2022-10-30T10:31:41.700Z,15.20
2022-10-30T10:34:58.925Z,15.33
2022-10-30T10:38:11.995Z,15.50
2022-10-30T10:41:27.431Z,15.70
2022-10-30T10:44:48.917Z,15.88
2022-10-30T10:51:21.762Z,16.29
2022-10-30T10:54:32.045Z,16.47
2022-10-30T10:57:41.818Z,16.66
2022-10-30T11:00:49.091Z,16.85
2022-10-30T11:04:01.566Z,17.04
2022-10-30T11:07:22.724Z,17.31
2022-10-30T11:10:28.709Z,17.49
2022-10-30T11:13:35.935Z,17.61
2022-10-30T11:16:56.130Z,17.77
2022-10-30T11:20:13.486Z,17.98
2022-10-30T11:23:38.843Z,18.11
2022-10-30T11:26:45.497Z,18.18
2022-10-30T11:29:54.830Z,18.25
2022-10-30T11:33:22.052Z,18.30
2022-10-30T11:36:28.539Z,18.37
2022-10-30T11:39:35.974Z,18.40
2022-10-30T11:42:44.025Z,18.39
2022-10-30T11:45:51.615Z,18.38
2022-10-30T11:48:57.668Z,18.39
2022-10-30T11:52:04.762Z,18.41
2022-10-30T11:55:17.821Z,18.41
2022-10-30T11:58:30.935Z,18.42
2022-10-30T12:01:39.479Z,18.42
2022-10-30T12:04:45.615Z,18.42
2022-10-30T12:07:52.169Z,18.42
2022-10-30T12:11:01.653Z,18.46
2022-10-30T12:14:08.387Z,18.53
2022-10-30T12:17:17.956Z,18.63
2022-10-30T12:20:24.533Z,18.75
2022-10-30T12:23:32.513Z,18.85
2022-10-30T12:26:39.892Z,18.91
2022-10-30T12:30:07.893Z,18.98
2022-10-30T12:33:22.358Z,19.02
2022-10-30T12:36:33.683Z,19.04
2022-10-30T12:39:51.269Z,19.04
2022-10-30T12:43:03.051Z,19.08
2022-10-30T12:46:23.466Z,19.12
2022-10-30T12:49:36.152Z,19.17
2022-10-30T12:52:47.399Z,19.23
2022-10-30T12:56:01.200Z,19.28
2022-10-30T12:59:23.231Z,19.29
2022-10-30T13:02:42.130Z,19.28
2022-10-30T13:05:53.069Z,19.25
2022-10-30T13:09:09.481Z,19.29
2022-10-30T13:12:19.732Z,19.33
2022-10-30T13:15:31.039Z,19.37
2022-10-30T13:18:37.801Z,19.39
2022-10-30T13:21:50.428Z,19.42
2022-10-30T13:25:04.218Z,19.45
2022-10-30T13:28:21.577Z,19.44
2022-10-30T13:31:33.681Z,19.41
2022-10-30T13:34:51.931Z,19.35
2022-10-30T13:38:05.575Z,19.35
2022-10-30T13:41:24.430Z,19.37
2022-10-30T13:44:41.653Z,19.42
2022-10-30T13:47:57.505Z,19.47
2022-10-30T13:51:23.388Z,19.52
2022-10-30T13:54:34.075Z,19.59
2022-10-30T13:57:45.149Z,19.61
2022-10-30T14:01:02.031Z,19.61
2022-10-30T14:04:15.473Z,19.60
2022-10-30T14:07:31.186Z,19.59
2022-10-30T14:10:47.590Z,19.56
2022-10-30T14:13:57.712Z,19.54
2022-10-30T14:17:17.947Z,19.53
2022-10-30T14:20:29.822Z,19.51
2022-10-30T14:23:38.914Z,19.49
2022-10-30T14:26:52.762Z,19.46
2022-10-30T14:30:00.601Z,19.45
2022-10-30T14:33:06.859Z,19.43
2022-10-30T14:36:25.101Z,19.38
2022-10-30T14:39:39.589Z,19.30
2022-10-30T14:42:54.741Z,19.21
2022-10-30T14:46:03.222Z,19.11
2022-10-30T14:49:29.814Z,19.03
2022-10-30T14:52:47.503Z,18.93
2022-10-30T14:56:03.150Z,18.82
2022-10-30T14:59:22.344Z,18.73
2022-10-30T15:02:38.158Z,18.64
2022-10-30T15:05:51.493Z,18.57
2022-10-30T15:09:10.791Z,18.46
2022-10-30T15:12:43.367Z,18.35
2022-10-30T15:16:01.867Z,18.20
2022-10-30T15:19:10.237Z,18.07
2022-10-30T15:22:21.821Z,17.94
2022-10-30T15:25:33.333Z,17.81
2022-10-30T15:28:40.272Z,17.67
2022-10-30T15:31:46.388Z,17.55
2022-10-30T15:35:03.596Z,17.43
2022-10-30T15:38:11.495Z,17.32
2022-10-30T15:41:17.763Z,17.21
2022-10-30T15:44:27.324Z,17.08
2022-10-30T15:47:33.850Z,16.94
2022-10-30T15:50:46.591Z,16.79
2022-10-30T15:53:56.238Z,16.62
2022-10-30T15:57:49.314Z,16.50
2022-10-30T16:00:31.342Z,16.42
2022-10-30T16:03:37.452Z,16.36
2022-10-30T16:06:49.673Z,16.29
2022-10-30T16:10:01.344Z,16.22
2022-10-30T16:13:07.827Z,16.11
2022-10-30T16:16:18.647Z,15.98
2022-10-30T16:19:29.231Z,15.83
2022-10-30T16:22:40.558Z,15.68
2022-10-30T16:25:47.848Z,15.55
2022-10-30T16:28:53.977Z,15.45
2022-10-30T16:32:01.283Z,15.35
2022-10-30T16:35:09.282Z,15.26
2022-10-30T16:38:16.396Z,15.18
2022-10-30T16:41:26.720Z,15.10
2022-10-30T16:44:34.886Z,15.02
2022-10-30T16:47:44.936Z,14.94
2022-10-30T16:50:52.140Z,14.85
2022-10-30T16:53:58.871Z,14.76
2022-10-30T16:57:10.937Z,14.65
2022-10-30T17:00:27.003Z,14.55
2022-10-30T17:03:38.378Z,14.44
2022-10-30T17:06:46.082Z,14.32
2022-10-30T17:09:54.142Z,14.20
2022-10-30T17:13:33.902Z,14.09
2022-10-30T17:16:40.672Z,13.98
2022-10-30T17:19:56.345Z,13.89
2022-10-30T17:23:15.880Z,13.81
2022-10-30T17:26:22.264Z,13.72
2022-10-30T17:29:49.784Z,13.62
2022-10-30T17:32:58.096Z,13.55
2022-10-30T17:36:06.988Z,13.49
2022-10-30T17:39:13.116Z,13.41
2022-10-30T17:42:17.648Z,13.31
2022-10-30T17:45:23.782Z,13.23
2022-10-30T17:48:28.963Z,13.16
2022-10-30T17:51:35.109Z,13.08
2022-10-30T17:54:39.765Z,13.01
2022-10-30T17:57:46.067Z,12.90
2022-10-30T18:00:52.228Z,12.82
2022-10-30T18:03:58.690Z,12.74
2022-10-30T18:07:04.895Z,12.65
2022-10-30T18:10:12.251Z,12.58
2022-10-30T18:13:19.650Z,12.53
2022-10-30T18:16:26.369Z,12.48
2022-10-30T18:19:32.593Z,12.43
2022-10-30T18:22:38.676Z,12.38
2022-10-30T18:25:43.129Z,12.34
2022-10-30T18:28:49.611Z,12.26
2022-10-30T18:31:55.703Z,12.17
2022-10-30T18:35:00.279Z,12.09
2022-10-30T18:38:08.317Z,12.02
2022-10-30T18:41:18.140Z,11.97
2022-10-30T18:44:24.198Z,11.91
2022-10-30T18:47:30.346Z,11.87
2022-10-30T18:50:35.030Z,11.79
2022-10-30T18:53:41.139Z,11.70
2022-10-30T18:56:45.814Z,11.65
2022-10-30T18:59:51.913Z,11.64
2022-10-30T19:02:56.730Z,11.61
2022-10-30T19:06:03.018Z,11.56
2022-10-30T19:09:09.224Z,11.54
2022-10-30T19:12:15.444Z,11.52
2022-10-30T19:15:26.159Z,11.50
2022-10-30T19:18:32.955Z,11.45
2022-10-30T19:21:39.103Z,11.41
2022-10-30T19:24:44.047Z,11.38
2022-10-30T19:27:50.429Z,11.32
2022-10-30T19:30:56.623Z,11.23
2022-10-30T19:34:01.128Z,11.18
2022-10-30T19:37:07.315Z,11.12
2022-10-30T19:40:26.823Z,11.06
2022-10-30T19:43:32.994Z,10.99
2022-10-30T19:46:37.840Z,10.96
2022-10-30T19:49:44.064Z,10.97
2022-10-30T19:52:48.611Z,10.96
2022-10-30T19:55:54.918Z,10.88
2022-10-30T19:59:01.161Z,10.80
2022-10-30T20:02:07.601Z,10.73
2022-10-30T20:05:16.097Z,10.65
2022-10-30T20:08:24.243Z,10.63
2022-10-30T20:11:32.013Z,10.58
2022-10-30T20:14:38.113Z,10.49
2022-10-30T20:17:42.735Z,10.40
2022-10-30T20:20:53.859Z,10.33
2022-10-30T20:24:00.055Z,10.27
2022-10-30T20:27:04.621Z,10.22
2022-10-30T20:30:15.662Z,10.16
2022-10-30T20:33:23.397Z,10.12
2022-10-30T20:36:29.602Z,10.08
2022-10-30T20:39:34.104Z,10.06
2022-10-30T20:42:40.455Z,10.03
2022-10-30T20:45:46.765Z,10.00
2022-10-30T20:48:53.057Z,9.98
2022-10-30T20:51:59.094Z,9.93
2022-10-30T20:55:05.711Z,9.87
2022-10-30T20:58:12.054Z,9.84
2022-10-30T21:01:18.328Z,9.81
2022-10-30T21:04:24.565Z,9.74
2022-10-30T21:07:29.068Z,9.70
2022-10-30T21:10:37.586Z,9.69
2022-10-30T21:13:43.703Z,9.67
2022-10-30T21:16:48.247Z,9.60
2022-10-30T21:19:54.389Z,9.57
2022-10-30T21:22:58.854Z,9.56
2022-10-30T21:26:06.545Z,9.45
2022-10-30T21:29:12.627Z,9.35
2022-10-30T21:32:19.091Z,9.28
2022-10-30T21:35:25.438Z,9.24
2022-10-30T21:38:32.946Z,9.19
2022-10-30T21:41:39.315Z,9.12
2022-10-30T21:44:45.406Z,9.09
2022-10-30T21:47:54.522Z,9.05
2022-10-30T21:51:08.506Z,8.99
2022-10-30T21:54:15.795Z,8.93
2022-10-30T21:57:21.917Z,8.90
2022-10-30T22:00:28.039Z,8.90
2022-10-30T22:03:35.049Z,8.86
2022-10-30T22:06:43.500Z,8.78
2022-10-30T22:09:49.567Z,8.75
2022-10-30T22:12:55.653Z,8.73
2022-10-30T22:16:02.149Z,8.72
2022-10-30T22:19:09.708Z,8.70
2022-10-30T22:22:15.821Z,8.69
2022-10-30T22:25:22.200Z,8.68
2022-10-30T22:28:29.399Z,8.66
2022-10-30T22:31:35.522Z,8.63
2022-10-30T22:34:41.561Z,8.61
2022-10-30T22:37:47.614Z,8.64
2022-10-30T22:40:53.637Z,8.62
2022-10-30T22:44:00.500Z,8.59
2022-10-30T22:47:06.735Z,8.59
2022-10-30T22:50:11.379Z,8.63
2022-10-30T22:53:18.153Z,8.64
2022-10-30T22:56:26.788Z,8.62
2022-10-30T22:59:32.930Z,8.57
2022-10-30T23:02:37.390Z,8.50
2022-10-30T23:05:43.533Z,8.46
2022-10-30T23:08:50.538Z,8.42
2022-10-30T23:11:56.670Z,8.38
2022-10-30T23:15:02.733Z,8.34
2022-10-30T23:18:09.133Z,8.29
2022-10-30T23:21:17.042Z,8.26
2022-10-30T23:24:23.109Z,8.22
2022-10-30T23:27:30.328Z,8.22
2022-10-30T23:30:38.231Z,8.23
2022-10-30T23:33:44.294Z,8.24
2022-10-30T23:36:50.399Z,8.23
2022-10-30T23:39:56.511Z,8.18
2022-10-30T23:43:03.046Z,8.11
2022-10-30T23:46:09.554Z,8.06
2022-10-30T23:49:14.372Z,8.00
2022-10-30T23:52:20.502Z,7.93
2022-10-30T23:55:26.506Z,7.87
2022-10-30T23:58:32.652Z,7.79
